Time;durP1;ratioP1;P1;durP2;ratioP2;P2;SDS_P1;SDS_P2;PMS_P1;PMS_P2;Temp;Humidity;BMP_temperature;BMP_pressure;BME280_temperature;BME280_humidity;BME280_pressure;Samples;Min_cycle;Max_cycle;Signal;HPM_P1;HPM_P2
2022/11/18 05:01:07;;;;;;;2.72;0.77;;;9.40;99.90;;;;;;5530500;23;20099;-73
2022/11/18 05:03:32;;;;;;;2.00;0.60;;;9.30;99.90;;;;;;4917068;29;20489;-73
2022/11/18 05:06:00;;;;;;;2.53;0.70;;;9.30;99.90;;;;;;4918582;29;20359;-73
2022/11/18 05:08:26;;;;;;;2.65;0.60;;;9.30;99.90;;;;;;4917274;29;20060;-73
2022/11/18 05:12:47;;;;;;;2.67;0.60;;;9.20;99.90;;;;;;4917237;29;20031;-73
2022/11/18 05:13:37;;;;;;;1.85;0.75;;;9.10;99.90;;;;;;4923169;29;20401;-72
2022/11/18 05:16:03;;;;;;;1.33;0.50;;;9.00;99.90;;;;;;4922264;29;20024;-74
2022/11/18 05:18:28;;;;;;;0.70;0.50;;;9.00;99.90;;;;;;4918833;29;20028;-73
2022/11/18 05:20:54;;;;;;;2.93;0.50;;;8.90;99.90;;;;;;4917453;29;20272;-72
2022/11/18 05:23:19;;;;;;;3.23;0.90;;;8.90;99.90;;;;;;4918066;29;20107;-72
2022/11/18 05:25:45;;;;;;;1.67;0.40;;;8.90;99.90;;;;;;4916945;29;20063;-72
2022/11/18 05:28:10;;;;;;;1.30;0.53;;;8.80;99.90;;;;;;4917783;29;20038;-73
2022/11/18 05:30:36;;;;;;;1.40;0.50;;;8.80;99.90;;;;;;4918853;29;20033;-74
2022/11/18 05:33:01;;;;;;;0.90;0.50;;;8.80;99.90;;;;;;4911514;29;20036;-73
2022/11/18 05:35:27;;;;;;;1.37;0.40;;;8.80;99.90;;;;;;4901663;29;20056;-72
2022/11/18 05:37:53;;;;;;;1.20;0.70;;;8.80;99.90;;;;;;4907747;29;20039;-73
2022/11/18 05:40:18;;;;;;;2.00;0.87;;;8.70;99.90;;;;;;4913036;29;20040;-73
2022/11/18 05:45:28;;;;;;;3.33;0.90;;;8.70;99.90;;;;;;4904989;29;20043;-73
2022/11/18 05:47:59;;;;;;;3.13;1.00;;;8.70;99.90;;;;;;4904478;29;20046;-73
2022/11/18 05:50:25;;;;;;;4.07;2.28;;;8.60;99.90;;;;;;4897208;29;20056;-72
2022/11/18 05:52:50;;;;;;;3.57;0.90;;;8.60;99.90;;;;;;4898833;29;20053;-73
2022/11/18 05:55:18;;;;;;;2.07;0.63;;;8.60;99.90;;;;;;4911987;29;20079;-73
2022/11/18 05:57:43;;;;;;;2.33;0.95;;;8.60;99.90;;;;;;4914542;29;20503;-74
2022/11/18 06:00:10;;;;;;;2.00;0.77;;;8.60;99.90;;;;;;4915017;29;20020;-73
2022/11/18 06:02:36;;;;;;;2.05;0.80;;;8.60;99.90;;;;;;4918758;29;20032;-73
2022/11/18 06:05:03;;;;;;;2.67;0.70;;;8.50;99.90;;;;;;4921532;29;20039;-73
2022/11/18 06:07:37;;;;;;;2.63;0.65;;;8.50;99.90;;;;;;4920753;29;20032;-74
2022/11/18 06:10:04;;;;;;;1.73;0.60;;;8.50;99.90;;;;;;4918489;29;20120;-73
2022/11/18 06:12:41;;;;;;;4.72;1.45;;;8.50;99.90;;;;;;4921138;29;20052;-73
2022/11/18 06:15:21;;;;;;;2.20;0.65;;;8.60;99.90;;;;;;4920286;29;20481;-73
2022/11/18 06:17:53;;;;;;;2.60;0.75;;;8.50;99.90;;;;;;4921922;29;20047;-73
2022/11/18 06:20:20;;;;;;;3.30;0.90;;;8.50;99.90;;;;;;4921700;29;20028;-73
2022/11/18 06:22:47;;;;;;;1.67;0.70;;;8.60;99.90;;;;;;4921820;29;20370;-73
2022/11/18 06:25:13;;;;;;;1.35;0.75;;;8.50;99.90;;;;;;4921441;29;20083;-73
2022/11/18 06:27:39;;;;;;;3.00;0.80;;;8.50;99.90;;;;;;4918994;29;20029;-73
2022/11/18 06:30:05;;;;;;;1.77;0.90;;;8.60;99.90;;;;;;4919448;29;20028;-73
2022/11/18 06:32:31;;;;;;;2.55;0.80;;;8.60;99.90;;;;;;4920009;29;20216;-74
2022/11/18 06:34:56;;;;;;;2.20;1.10;;;8.70;99.90;;;;;;4920027;29;20513;-74
2022/11/18 06:37:22;;;;;;;3.00;0.80;;;8.60;99.90;;;;;;4918115;29;20397;-72
2022/11/18 06:39:47;;;;;;;4.63;0.90;;;8.60;99.90;;;;;;4919020;29;20032;-73
2022/11/18 06:45:00;;;;;;;3.92;0.93;;;8.60;99.90;;;;;;4919203;29;20500;-73
2022/11/18 06:47:26;;;;;;;4.75;1.13;;;8.50;99.90;;;;;;4918768;29;20032;-74
2022/11/18 06:49:52;;;;;;;2.83;1.42;;;8.50;99.90;;;;;;4919012;29;20020;-73
2022/11/18 06:52:17;;;;;;;1.97;1.20;;;8.60;99.90;;;;;;4917386;29;20405;-73
2022/11/18 06:54:43;;;;;;;2.00;1.40;;;8.60;99.90;;;;;;4917480;29;20024;-73
2022/11/18 06:57:08;;;;;;;2.00;1.20;;;8.60;99.90;;;;;;4915337;29;20120;-73
2022/11/18 06:59:34;;;;;;;1.37;0.90;;;8.60;99.90;;;;;;4916287;29;20040;-74
2022/11/18 07:01:59;;;;;;;2.73;1.30;;;8.60;99.90;;;;;;4918936;29;20040;-73
2022/11/18 07:04:25;;;;;;;2.53;0.90;;;8.70;99.90;;;;;;4916205;29;20035;-73
2022/11/18 07:06:51;;;;;;;4.70;0.90;;;8.70;99.90;;;;;;4918577;29;20074;-72
2022/11/18 07:09:16;;;;;;;2.38;1.17;;;8.60;99.90;;;;;;4916939;29;20020;-74
2022/11/18 07:11:42;;;;;;;1.37;0.77;;;8.60;99.90;;;;;;4915734;29;20029;-73
2022/11/18 07:14:08;;;;;;;3.23;1.57;;;8.50;99.90;;;;;;4914625;29;20048;-74
2022/11/18 07:16:38;;;;;;;2.55;1.58;;;8.60;99.90;;;;;;4912303;29;20039;-71
2022/11/18 07:19:11;;;;;;;1.98;1.13;;;8.60;99.90;;;;;;4900362;29;20504;-71
2022/11/18 07:21:38;;;;;;;3.83;2.13;;;8.60;99.90;;;;;;4912863;29;20035;-69
2022/11/18 07:24:06;;;;;;;2.85;1.33;;;8.50;99.90;;;;;;4914653;29;20037;-68
2022/11/18 07:26:32;;;;;;;5.15;1.25;;;8.50;99.90;;;;;;4915563;29;20024;-68
2022/11/18 07:28:58;;;;;;;5.25;1.10;;;8.50;99.90;;;;;;4915423;29;20037;-68
2022/11/18 07:31:23;;;;;;;9.63;1.50;;;8.50;99.90;;;;;;4901399;29;20033;-70
2022/11/18 07:33:49;;;;;;;2.17;1.10;;;8.60;99.90;;;;;;4915380;29;20062;-70
2022/11/18 07:36:18;;;;;;;3.85;1.15;;;8.60;99.90;;;;;;4918112;29;20123;-69
2022/11/18 07:38:44;;;;;;;2.60;1.10;;;8.60;99.90;;;;;;4918553;29;20545;-69
2022/11/18 07:41:12;;;;;;;2.63;1.20;;;8.60;99.90;;;;;;4919567;29;20067;-69
2022/11/18 07:43:37;;;;;;;2.30;1.20;;;8.70;99.90;;;;;;4918310;29;20036;-68
2022/11/18 07:46:21;;;;;;;2.67;1.57;;;8.60;99.90;;;;;;4918496;29;20035;-72
2022/11/18 07:48:48;;;;;;;3.25;1.20;;;8.60;99.90;;;;;;4919516;29;20063;-71
2022/11/18 07:51:16;;;;;;;2.83;1.25;;;8.70;99.90;;;;;;4918218;29;20020;-70
2022/11/18 07:53:42;;;;;;;4.30;1.65;;;8.60;99.90;;;;;;4934036;29;20028;-71
2022/11/18 07:56:09;;;;;;;3.67;1.80;;;8.60;99.90;;;;;;4934149;29;20115;-71
2022/11/18 07:58:34;;;;;;;;;;;8.70;99.90;;;;;;4919701;29;20044;-71
2022/11/18 08:01:12;;;;;;;4.22;1.83;;;8.80;99.90;;;;;;4918795;29;19919;-72
2022/11/18 08:03:37;;;;;;;3.72;2.05;;;8.80;99.90;;;;;;4925344;29;20060;-73
2022/11/18 08:06:05;;;;;;;4.38;2.20;;;8.80;99.90;;;;;;4919680;29;20024;-73
2022/11/18 08:08:30;;;;;;;4.82;2.22;;;8.80;99.90;;;;;;4917302;29;20024;-71
2022/11/18 08:10:58;;;;;;;2.93;2.13;;;8.80;99.90;;;;;;4919656;29;20024;-71
2022/11/18 08:13:25;;;;;;;7.18;2.00;;;8.80;99.90;;;;;;4918660;29;20059;-71
2022/11/18 08:15:52;;;;;;;3.22;1.70;;;8.80;99.90;;;;;;4923017;29;20401;-72
2022/11/18 08:18:17;;;;;;;;;;;8.90;99.90;;;;;;4919513;29;20028;-75
2022/11/18 08:20:44;;;;;;;3.05;1.58;;;8.90;99.90;;;;;;4908953;29;19914;-73
2022/11/18 08:23:10;;;;;;;;;;;9.00;99.90;;;;;;4927322;29;20096;-74
2022/11/18 08:25:36;;;;;;;2.33;1.40;;;9.00;99.90;;;;;;4923132;29;19950;-74
2022/11/18 08:28:02;;;;;;;4.28;1.75;;;9.10;99.90;;;;;;4923088;29;20039;-74
2022/11/18 08:30:28;;;;;;;3.05;1.60;;;9.10;99.90;;;;;;4918495;29;20115;-73
2022/11/18 08:32:53;;;;;;;3.80;1.70;;;9.20;99.90;;;;;;4917013;29;20044;-74
2022/11/18 08:35:19;;;;;;;5.32;1.95;;;9.20;99.90;;;;;;4916934;29;20084;-74
2022/11/18 08:37:45;;;;;;;3.83;1.90;;;9.20;99.90;;;;;;4917418;29;20024;-74
2022/11/18 08:40:10;;;;;;;2.67;2.17;;;9.20;99.90;;;;;;4918479;29;20039;-73
2022/11/18 08:42:37;;;;;;;4.72;2.95;;;9.20;99.90;;;;;;4917131;29;20052;-74
2022/11/18 08:45:07;;;;;;;4.60;2.58;;;9.20;99.90;;;;;;4917318;29;20060;-74
2022/11/18 08:47:33;;;;;;;6.65;3.20;;;9.30;99.90;;;;;;4917586;29;20048;-73
2022/11/18 08:49:58;;;;;;;4.47;3.08;;;9.30;99.90;;;;;;4920003;29;20100;-73
2022/11/18 08:52:25;;;;;;;3.00;2.10;;;9.30;99.90;;;;;;4915027;29;20080;-72
2022/11/18 08:54:52;;;;;;;4.82;2.85;;;9.40;99.90;;;;;;4920557;29;20107;-73
2022/11/18 08:57:23;;;;;;;;;;;9.40;99.90;;;;;;4920040;29;20024;-73
2022/11/18 08:59:49;;;;;;;4.00;2.88;;;9.40;99.90;;;;;;4912699;29;19911;-72
2022/11/18 09:02:17;;;;;;;6.00;3.10;;;9.40;99.90;;;;;;4913420;29;20043;-73
2022/11/18 09:04:42;;;;;;;5.25;2.95;;;9.40;99.90;;;;;;4904884;29;20515;-72
2022/11/18 09:07:09;;;;;;;3.90;2.70;;;9.40;99.90;;;;;;4911606;29;20549;-72
2022/11/18 09:09:35;;;;;;;4.95;2.70;;;9.50;99.90;;;;;;4899754;29;20035;-72
2022/11/18 09:12:01;;;;;;;5.40;2.42;;;9.60;99.90;;;;;;4907219;29;20032;-72
2022/11/18 09:14:26;;;;;;;4.43;2.80;;;9.60;99.90;;;;;;4910210;29;20083;-72
2022/11/18 09:16:52;;;;;;;4.33;2.63;;;9.50;99.90;;;;;;4916932;29;20032;-71
2022/11/18 09:19:17;;;;;;;4.63;2.60;;;9.50;99.90;;;;;;4916986;29;20039;-71
2022/11/18 09:21:43;;;;;;;4.53;2.97;;;9.60;99.90;;;;;;4917160;29;20030;-71
2022/11/18 09:24:10;;;;;;;4.33;2.87;;;9.70;99.90;;;;;;4915917;29;20055;-73
2022/11/18 09:26:36;;;;;;;3.58;2.30;;;9.60;99.90;;;;;;4916177;29;20040;-71
2022/11/18 09:29:02;;;;;;;6.15;3.00;;;9.60;99.90;;;;;;4917737;29;20035;-73
2022/11/18 09:31:27;;;;;;;6.30;2.55;;;9.60;99.90;;;;;;4918167;29;20020;-72
2022/11/18 09:33:53;;;;;;;4.20;2.43;;;9.60;99.90;;;;;;4918222;29;20032;-72
2022/11/18 09:36:23;;;;;;;3.50;2.50;;;9.70;99.90;;;;;;4916656;29;20032;-73
2022/11/18 09:38:49;;;;;;;5.15;3.20;;;9.70;99.90;;;;;;4918199;29;20359;-72
2022/11/18 09:41:53;;;;;;;6.60;2.90;;;9.60;99.90;;;;;;4917598;29;20496;-73
2022/11/18 09:44:48;;;;;;;6.65;3.03;;;9.60;99.90;;;;;;4914101;29;20399;-73
2022/11/18 09:47:30;;;;;;;4.93;2.80;;;9.60;99.90;;;;;;4916420;29;20080;-73
2022/11/18 09:50:16;;;;;;;4.80;2.83;;;9.70;99.90;;;;;;4917620;29;20028;-72
2022/11/18 09:52:54;;;;;;;6.75;3.35;;;9.80;99.90;;;;;;4933337;29;20370;-73
2022/11/18 09:55:20;;;;;;;7.68;3.80;;;9.80;99.90;;;;;;4917896;29;20028;-72
2022/11/18 09:57:53;;;;;;;5.38;3.13;;;9.80;99.90;;;;;;4916418;29;20032;-73
2022/11/18 10:00:20;;;;;;;5.03;2.72;;;9.80;99.90;;;;;;4915988;29;20043;-73
2022/11/18 10:03:05;;;;;;;6.40;3.28;;;9.80;99.90;;;;;;4919206;29;20044;-74
2022/11/18 10:05:38;;;;;;;7.40;3.53;;;9.80;99.90;;;;;;4931775;29;20504;-73
2022/11/18 10:08:31;;;;;;;7.93;3.95;;;9.90;99.90;;;;;;4916092;29;20091;-73
2022/11/18 10:11:09;;;;;;;10.10;3.30;;;9.90;99.90;;;;;;4915839;29;20035;-73
2022/11/18 10:14:09;;;;;;;6.90;3.15;;;10.00;99.90;;;;;;4917573;29;20055;-72
2022/11/18 10:17:01;;;;;;;5.57;2.92;;;10.00;99.90;;;;;;4859790;29;20049;-73
2022/11/18 10:19:40;;;;;;;9.98;3.60;;;10.00;99.90;;;;;;4874777;29;20038;-73
2022/11/18 10:22:31;;;;;;;10.30;4.20;;;10.10;99.90;;;;;;4859234;29;20128;-73
2022/11/18 10:24:59;;;;;;;7.00;3.72;;;10.20;99.90;;;;;;4858914;29;20029;-73
2022/11/18 10:27:38;;;;;;;6.28;3.63;;;10.20;99.90;;;;;;4858911;29;20033;-72
2022/11/18 10:30:21;;;;;;;5.80;3.13;;;10.30;99.90;;;;;;4874534;29;20151;-73
2022/11/18 10:32:58;;;;;;;7.22;3.65;;;10.40;99.90;;;;;;4861892;29;20030;-73
2022/11/18 10:35:33;;;;;;;9.30;3.60;;;10.60;99.90;;;;;;4860688;29;20482;-72
2022/11/18 10:38:05;;;;;;;6.28;3.35;;;10.70;99.90;;;;;;4862016;29;20041;-72
2022/11/18 10:40:32;;;;;;;7.10;4.22;;;10.80;99.90;;;;;;4877503;29;20036;-73
2022/11/18 10:42:58;;;;;;;5.53;2.83;;;10.80;99.90;;;;;;4877449;29;20090;-71
2022/11/18 10:45:28;;;;;;;8.55;3.15;;;10.80;99.90;;;;;;4851960;29;20499;-72
2022/11/18 10:48:16;;;;;;;7.15;2.85;;;10.70;99.90;;;;;;4858715;29;20446;-72
2022/11/18 10:50:51;;;;;;;3.33;2.47;;;10.80;99.90;;;;;;4858112;29;20493;-70
2022/11/18 10:53:34;;;;;;;8.40;3.55;;;10.80;99.90;;;;;;4913165;29;20040;-71
2022/11/18 10:56:09;;;;;;;6.82;2.95;;;10.80;99.90;;;;;;4916087;29;20032;-70
2022/11/18 10:58:40;;;;;;;8.07;3.47;;;10.80;99.90;;;;;;4919940;29;20053;-70
2022/11/18 11:01:19;;;;;;;18.90;3.67;;;10.90;99.90;;;;;;4919502;29;20040;-71
2022/11/18 11:03:59;;;;;;;5.97;2.92;;;10.90;99.90;;;;;;4916469;29;20461;-75
2022/11/18 11:06:31;;;;;;;4.82;2.92;;;10.90;99.90;;;;;;4915132;29;20036;-71
2022/11/18 11:09:01;;;;;;;8.30;2.97;;;11.00;99.90;;;;;;4920208;29;20048;-70
2022/11/18 11:11:35;;;;;;;5.65;2.90;;;11.00;99.90;;;;;;4918983;29;20115;-72
2022/11/18 11:14:12;;;;;;;8.73;3.83;;;11.10;99.90;;;;;;4920815;29;20478;-72
2022/11/18 11:16:46;;;;;;;4.10;2.40;;;11.30;99.90;;;;;;4920852;29;20032;-70
2022/11/18 11:19:16;;;;;;;5.15;2.50;;;11.40;99.90;;;;;;4901145;29;20060;-70
2022/11/18 11:21:41;;;;;;;4.20;2.53;;;11.40;99.90;;;;;;4899855;29;20040;-70
2022/11/18 11:24:11;;;;;;;10.00;4.20;;;11.40;99.90;;;;;;4900968;29;20029;-70
2022/11/18 11:27:04;;;;;;;4.72;2.00;;;11.50;99.90;;;;;;4899798;29;20265;-73
2022/11/18 11:29:36;;;;;;;7.10;2.00;;;11.50;99.90;;;;;;4901154;29;20050;-71
2022/11/18 11:32:29;;;;;;;9.00;2.60;;;11.40;99.90;;;;;;4904587;29;20032;-71
2022/11/18 11:35:20;;;;;;;4.05;1.92;;;11.40;99.90;;;;;;4901184;29;20411;-77
2022/11/18 11:37:50;;;;;;;6.13;2.22;;;11.40;99.90;;;;;;4915739;29;20035;-71
2022/11/18 11:40:28;;;;;;;8.00;2.45;;;11.40;99.90;;;;;;4899426;29;20033;-71
2022/11/18 11:43:30;;;;;;;3.80;1.60;;;11.40;99.90;;;;;;4899503;29;20088;-73
2022/11/18 11:46:31;;;;;;;6.30;2.08;;;11.40;99.90;;;;;;4899162;29;20486;-71
2022/11/18 11:49:24;;;;;;;7.03;1.67;;;11.40;99.90;;;;;;4882037;29;20038;-71
2022/11/18 11:52:01;;;;;;;6.47;1.60;;;11.30;99.90;;;;;;4899091;29;20033;-70
2022/11/18 11:54:51;;;;;;;10.75;1.85;;;11.30;99.90;;;;;;4900837;29;20025;-72
2022/11/18 11:57:35;;;;;;;6.60;1.73;;;11.30;99.90;;;;;;4901488;29;20033;-73
2022/11/18 12:00:05;;;;;;;3.75;1.67;;;11.20;99.90;;;;;;4900267;29;20031;-73
2022/11/18 12:02:48;;;;;;;7.80;2.03;;;11.30;99.90;;;;;;4905953;29;20036;-72
2022/11/18 12:05:22;;;;;;;3.13;1.40;;;11.30;99.90;;;;;;4902963;29;20044;-72
2022/11/18 12:07:56;;;;;;;4.32;1.90;;;11.40;99.90;;;;;;4899756;29;20033;-71
2022/11/18 12:10:41;;;;;;;3.70;1.20;;;11.40;99.90;;;;;;4898994;29;20088;-78
2022/11/18 12:13:25;;;;;;;4.30;1.60;;;11.40;99.90;;;;;;4901133;29;20021;-71
2022/11/18 12:15:51;;;;;;;6.97;1.45;;;11.50;99.90;;;;;;4900505;29;20046;-71
2022/11/18 12:18:20;;;;;;;7.53;2.07;;;11.60;99.90;;;;;;4903341;29;20363;-71
2022/11/18 12:20:53;;;;;;;6.65;1.85;;;11.50;99.90;;;;;;4916668;29;20029;-71
2022/11/18 12:23:22;;;;;;;4.43;1.40;;;11.40;99.90;;;;;;4918295;29;20024;-69
2022/11/18 12:25:47;;;;;;;3.75;1.40;;;11.40;99.90;;;;;;4918183;29;20100;-70
2022/11/18 12:28:34;;;;;;;4.80;1.90;;;11.40;99.90;;;;;;4906402;29;20053;-70
2022/11/18 12:31:18;;;;;;;5.25;2.45;;;11.50;99.90;;;;;;4900546;29;20028;-69
2022/11/18 12:33:55;;;;;;;7.68;2.10;;;11.70;99.90;;;;;;4914927;29;20039;-71
2022/11/18 12:36:41;;;;;;;9.68;1.95;;;11.70;99.90;;;;;;4913750;29;20028;-75
2022/11/18 12:39:26;;;;;;;8.73;2.55;;;11.90;99.90;;;;;;4920958;29;20040;-76
2022/11/18 12:44:38;;;;;;;6.45;2.30;;;12.00;99.90;;;;;;4909514;29;20096;-75
2022/11/18 12:47:08;;;;;;;7.60;1.92;;;12.10;99.90;;;;;;4909859;29;20437;-75
2022/11/18 12:49:36;;;;;;;4.30;1.50;;;12.20;99.90;;;;;;4915133;29;20136;-74
2022/11/18 12:52:23;;;;;;;6.43;1.70;;;12.00;99.90;;;;;;4907844;29;20035;-75
2022/11/18 12:54:49;;;;;;;7.47;1.20;;;11.90;99.90;;;;;;4895725;29;20037;-76
2022/11/18 12:57:26;;;;;;;4.50;1.10;;;11.70;99.90;;;;;;4903423;29;20365;-74
2022/11/18 12:59:52;;;;;;;3.15;1.70;;;11.70;99.90;;;;;;4901125;29;20029;-72
2022/11/18 13:02:25;;;;;;;5.90;1.73;;;11.60;99.90;;;;;;4901441;29;20051;-73
2022/11/18 13:05:17;;;;;;;3.25;1.10;;;11.60;99.90;;;;;;4900076;29;20029;-72
2022/11/18 13:08:14;;;;;;;5.75;1.00;;;11.70;99.90;;;;;;4898519;29;20047;-72
2022/11/18 13:10:45;;;;;;;7.10;1.30;;;11.70;99.90;;;;;;4898558;29;20483;-73
2022/11/18 13:13:27;;;;;;;3.75;1.20;;;11.60;99.90;;;;;;4899331;29;20084;-72
2022/11/18 13:18:52;;;;;;;4.93;1.38;;;11.60;99.90;;;;;;4937625;29;20495;-73
2022/11/18 13:24:19;;;;;;;4.35;1.23;;;11.70;99.90;;;;;;4936735;29;20035;-73
2022/11/18 13:26:47;;;;;;;3.55;1.20;;;11.60;99.90;;;;;;4935053;29;20024;-73
2022/11/18 13:29:21;;;;;;;5.40;1.70;;;11.60;99.90;;;;;;4918723;29;20499;-72
2022/11/18 13:31:58;;;;;;;7.97;2.10;;;11.70;99.90;;;;;;4916508;29;20397;-68
2022/11/18 13:34:26;;;;;;;4.43;1.27;;;11.60;99.90;;;;;;4917463;29;20039;-69
2022/11/18 13:36:54;;;;;;;5.25;1.25;;;11.70;99.90;;;;;;4916132;29;20036;-69
2022/11/18 13:39:25;;;;;;;6.20;1.13;;;11.70;99.90;;;;;;4917774;29;20032;-69
2022/11/18 13:42:24;;;;;;;5.65;1.95;;;11.60;99.90;;;;;;4917202;29;20481;-69
2022/11/18 13:44:54;;;;;;;5.75;1.80;;;11.50;99.90;;;;;;4914087;29;20387;-69
2022/11/18 13:47:51;;;;;;;6.50;1.63;;;11.40;99.90;;;;;;4917610;29;20043;-70
2022/11/18 13:50:29;;;;;;;6.78;1.33;;;11.30;99.90;;;;;;4917065;29;20082;-69
2022/11/18 13:53:22;;;;;;;4.78;1.45;;;11.30;99.90;;;;;;4917527;29;20363;-69
2022/11/18 13:56:00;;;;;;;4.75;1.27;;;11.20;99.90;;;;;;4917840;29;20084;-71
2022/11/18 13:58:49;;;;;;;6.72;1.40;;;11.20;99.90;;;;;;4907864;29;20021;-72
2022/11/18 14:01:27;;;;;;;5.90;1.52;;;11.20;99.90;;;;;;4891665;29;20048;-69
2022/11/18 14:04:07;;;;;;;6.88;1.95;;;11.20;99.90;;;;;;4899662;29;20040;-70
2022/11/18 14:06:40;;;;;;;5.25;1.42;;;11.20;99.90;;;;;;4917866;29;20035;-71
2022/11/18 14:09:24;;;;;;;4.65;1.27;;;11.40;99.90;;;;;;4917422;29;20028;-71
2022/11/18 14:12:06;;;;;;;2.97;1.20;;;11.30;99.90;;;;;;4917876;29;20099;-71
2022/11/18 14:14:40;;;;;;;5.30;1.33;;;11.20;99.90;;;;;;4916114;29;20497;-71
2022/11/18 14:17:17;;;;;;;7.53;2.13;;;11.10;99.90;;;;;;4916539;29;20036;-71
2022/11/18 14:19:43;;;;;;;4.53;1.80;;;11.10;99.90;;;;;;4916475;29;20028;-72
2022/11/18 14:22:20;;;;;;;6.07;1.30;;;11.20;99.90;;;;;;4917377;29;20039;-72
2022/11/18 14:24:57;;;;;;;8.80;1.87;;;11.20;99.90;;;;;;4919146;29;20028;-73
2022/11/18 14:27:49;;;;;;;8.38;1.60;;;11.20;99.90;;;;;;4917789;29;20020;-72
2022/11/18 14:30:35;;;;;;;5.57;1.48;;;11.10;99.90;;;;;;4918455;29;20016;-72
2022/11/18 14:33:12;;;;;;;4.30;1.40;;;11.00;99.90;;;;;;4919572;29;20080;-71
2022/11/18 14:35:39;;;;;;;6.47;1.20;;;10.90;99.90;;;;;;4921445;29;20107;-71
2022/11/18 14:38:16;;;;;;;7.30;1.83;;;10.90;99.90;;;;;;4921018;29;20024;-71
2022/11/18 14:40:42;;;;;;;6.60;2.42;;;10.90;99.90;;;;;;4919481;29;20028;-71
2022/11/18 14:43:11;;;;;;;8.23;1.80;;;10.90;99.90;;;;;;4919919;29;20024;-72
2022/11/18 14:45:37;;;;;;;7.72;1.67;;;11.00;99.90;;;;;;4920329;29;20056;-72
2022/11/18 14:48:03;;;;;;;6.35;1.73;;;11.00;99.90;;;;;;4921525;29;20032;-71
2022/11/18 14:50:29;;;;;;;6.68;1.60;;;11.00;99.90;;;;;;4920143;29;20028;-73
2022/11/18 14:52:54;;;;;;;4.63;1.67;;;11.00;99.90;;;;;;4921066;29;20378;-71
2022/11/18 14:55:20;;;;;;;4.37;1.30;;;11.00;99.90;;;;;;4920799;29;20480;-71
2022/11/18 14:57:45;;;;;;;4.67;1.70;;;10.90;99.90;;;;;;4920828;29;20483;-72
2022/11/18 15:00:14;;;;;;;9.57;2.40;;;10.80;99.90;;;;;;4920518;29;20390;-71
2022/11/18 15:02:40;;;;;;;6.38;2.13;;;10.80;99.90;;;;;;4920599;29;20502;-72
2022/11/18 15:05:06;;;;;;;8.05;2.38;;;10.70;99.90;;;;;;4902488;29;20043;-70
2022/11/18 15:07:32;;;;;;;5.28;1.63;;;10.70;99.90;;;;;;4901605;29;20037;-71
2022/11/18 15:09:57;;;;;;;4.40;1.77;;;10.70;99.90;;;;;;4916442;29;20025;-71
2022/11/18 15:12:23;;;;;;;7.47;1.70;;;10.70;99.90;;;;;;4916301;29;20025;-72
2022/11/18 15:14:48;;;;;;;4.57;1.73;;;10.90;99.90;;;;;;4901730;29;20060;-72
2022/11/18 15:17:14;;;;;;;5.03;1.80;;;10.90;99.90;;;;;;4915575;29;20051;-72
2022/11/18 15:19:40;;;;;;;4.10;1.30;;;10.80;99.90;;;;;;4901002;29;20039;-72
2022/11/18 15:22:06;;;;;;;7.50;1.90;;;10.90;99.90;;;;;;4900012;29;20092;-73
2022/11/18 15:24:31;;;;;;;6.78;1.65;;;10.90;99.90;;;;;;4899883;29;20036;-71
2022/11/18 15:26:57;;;;;;;3.97;1.50;;;10.90;99.90;;;;;;4901130;29;20057;-74
2022/11/18 15:29:24;;;;;;;11.10;2.73;;;10.80;99.90;;;;;;4901308;29;20029;-72
2022/11/18 15:31:50;;;;;;;3.95;1.40;;;10.80;99.90;;;;;;4901195;29;20076;-73
2022/11/18 15:34:18;;;;;;;6.07;2.40;;;10.70;99.90;;;;;;4915574;29;20119;-71
2022/11/18 15:36:44;;;;;;;7.43;1.70;;;10.60;99.90;;;;;;4907742;29;20036;-72
2022/11/18 15:39:10;;;;;;;6.50;2.40;;;10.70;99.90;;;;;;4900551;29;20491;-70
2022/11/18 15:41:38;;;;;;;9.05;2.72;;;10.70;99.90;;;;;;4915437;29;20041;-73
2022/11/18 15:44:04;;;;;;;6.57;2.00;;;10.70;99.90;;;;;;4914314;29;20340;-71
2022/11/18 15:46:32;;;;;;;12.45;2.38;;;10.70;99.90;;;;;;4901905;29;20107;-77
2022/11/18 15:48:58;;;;;;;7.07;2.20;;;10.70;99.90;;;;;;4900868;29;20035;-71
2022/11/18 15:51:26;;;;;;;10.70;2.92;;;10.80;99.90;;;;;;4904057;29;20077;-71
2022/11/18 15:53:51;;;;;;;8.88;2.00;;;10.70;99.90;;;;;;4900725;29;20063;-71
2022/11/18 15:56:23;;;;;;;4.80;1.85;;;10.70;99.90;;;;;;4899573;29;20064;-72
2022/11/18 15:58:53;;;;;;;7.75;2.17;;;10.80;99.90;;;;;;4910733;29;20075;-71
2022/11/18 16:01:19;;;;;;;6.53;2.00;;;10.90;99.90;;;;;;4920362;29;20134;-71
2022/11/18 16:03:45;;;;;;;7.07;2.38;;;10.90;99.90;;;;;;4919723;29;20505;-71
2022/11/18 16:06:10;;;;;;;10.20;3.60;;;10.80;99.90;;;;;;4918840;29;20036;-70
2022/11/18 16:08:36;;;;;;;8.97;2.67;;;10.90;99.90;;;;;;4919706;29;20034;-72
2022/11/18 16:13:45;;;;;;;4.05;1.58;;;10.90;99.90;;;;;;4919129;29;20128;-71
2022/11/18 16:16:22;;;;;;;4.53;1.73;;;10.90;99.90;;;;;;4919155;29;20060;-71
2022/11/18 16:18:48;;;;;;;4.82;1.60;;;10.80;99.90;;;;;;4919911;29;20374;-71
2022/11/18 16:21:14;;;;;;;8.63;2.17;;;10.70;99.90;;;;;;4917231;29;20080;-71
2022/11/18 16:23:39;;;;;;;6.30;1.92;;;10.70;99.90;;;;;;4918751;29;20028;-72
2022/11/18 16:26:05;;;;;;;7.40;2.50;;;10.70;99.90;;;;;;4918941;29;20123;-70
2022/11/18 16:28:31;;;;;;;31.40;4.13;;;10.80;99.90;;;;;;4918727;29;20024;-72
2022/11/18 16:33:40;;;;;;;8.10;2.65;;;10.90;99.90;;;;;;4918921;29;20126;-70
2022/11/18 16:36:06;;;;;;;6.50;3.20;;;10.90;99.90;;;;;;4918569;29;20024;-69
2022/11/18 16:38:32;;;;;;;10.65;2.90;;;10.80;99.90;;;;;;4917216;29;20080;-69
2022/11/18 16:40:58;;;;;;;10.00;3.27;;;10.70;99.90;;;;;;4918606;29;20035;-69
2022/11/18 16:43:24;;;;;;;9.68;3.45;;;10.60;99.90;;;;;;4917782;29;20028;-69
2022/11/18 16:45:51;;;;;;;7.68;3.05;;;10.60;99.90;;;;;;4915162;29;20180;-69
2022/11/18 16:48:17;;;;;;;14.73;9.63;;;10.60;99.90;;;;;;4916609;29;20111;-69
2022/11/18 16:50:43;;;;;;;7.05;3.10;;;10.50;99.90;;;;;;4916054;29;20145;-67
2022/11/18 16:53:08;;;;;;;8.90;3.40;;;10.50;99.90;;;;;;4915097;29;20485;-67
2022/11/18 16:55:34;;;;;;;8.20;2.30;;;10.70;99.90;;;;;;4917248;29;20036;-66
2022/11/18 16:57:59;;;;;;;4.47;2.30;;;10.70;99.90;;;;;;4914995;29;20091;-67
2022/11/18 17:00:25;;;;;;;8.37;2.27;;;10.80;99.90;;;;;;4914211;29;20032;-67
2022/11/18 17:02:51;;;;;;;6.97;2.30;;;10.80;99.90;;;;;;4917149;29;20032;-66
2022/11/18 17:05:16;;;;;;;4.63;1.83;;;10.80;99.90;;;;;;4917725;29;20032;-68
2022/11/18 17:07:42;;;;;;;8.23;2.40;;;10.80;99.90;;;;;;4917630;29;20032;-67
2022/11/18 17:10:18;;;;;;;4.27;2.00;;;10.70;99.90;;;;;;4910142;29;20099;-67
2022/11/18 17:12:45;;;;;;;7.63;1.88;;;10.70;99.90;;;;;;4902235;29;20343;-69
2022/11/18 17:15:11;;;;;;;4.07;1.80;;;10.70;99.90;;;;;;4898468;29;20039;-67
2022/11/18 17:17:37;;;;;;;7.95;1.58;;;10.70;99.90;;;;;;4905996;29;20099;-68
2022/11/18 17:20:03;;;;;;;5.47;1.83;;;10.90;99.90;;;;;;4917211;29;20052;-68
2022/11/18 17:22:28;;;;;;;9.27;1.98;;;10.80;99.90;;;;;;4907990;29;20083;-69
2022/11/18 17:24:54;;;;;;;6.03;2.37;;;10.70;99.90;;;;;;4915902;29;20036;-67
2022/11/18 17:27:19;;;;;;;4.80;2.07;;;10.70;99.90;;;;;;4916704;29;20442;-67
2022/11/18 17:29:45;;;;;;;3.43;1.50;;;10.60;99.90;;;;;;4917584;29;20119;-67
2022/11/18 17:32:10;;;;;;;6.50;2.00;;;10.60;99.90;;;;;;4917222;29;20047;-67
2022/11/18 17:34:36;;;;;;;10.00;1.73;;;10.40;99.90;;;;;;4916570;29;20048;-67
2022/11/18 17:37:02;;;;;;;3.90;2.00;;;10.40;99.90;;;;;;4915601;29;20450;-70
2022/11/18 17:39:27;;;;;;;4.40;1.70;;;10.30;99.90;;;;;;4910800;29;20043;-71
2022/11/18 17:44:37;;;;;;;6.32;2.30;;;10.40;99.90;;;;;;4913729;29;20042;-71
2022/11/18 17:47:03;;;;;;;7.25;2.40;;;10.40;99.90;;;;;;4915198;29;20056;-72
2022/11/18 17:49:28;;;;;;;8.57;4.00;;;10.40;99.90;;;;;;4914999;29;20063;-70
2022/11/18 17:51:54;;;;;;;7.73;3.40;;;10.50;99.90;;;;;;4914241;29;20029;-69
2022/11/18 17:54:20;;;;;;;8.03;3.20;;;10.50;99.90;;;;;;4914545;29;20032;-72
2022/11/18 17:56:46;;;;;;;9.60;3.80;;;10.50;99.90;;;;;;4917147;29;20504;-71
2022/11/18 17:59:16;;;;;;;6.57;3.05;;;10.50;99.90;;;;;;4917086;29;20040;-70
2022/11/18 18:01:43;;;;;;;12.20;5.00;;;10.40;99.90;;;;;;4915331;29;20036;-71
2022/11/18 18:04:09;;;;;;;8.40;4.40;;;10.40;99.90;;;;;;4916643;29;20028;-70
2022/11/18 18:06:35;;;;;;;9.63;4.15;;;10.40;99.90;;;;;;4903773;29;20020;-71
2022/11/18 18:09:00;;;;;;;7.13;2.70;;;10.30;99.90;;;;;;4913178;29;20036;-71
2022/11/18 18:11:26;;;;;;;9.13;2.90;;;10.10;99.90;;;;;;4911040;29;20035;-71
2022/11/18 18:14:11;;;;;;;4.65;2.88;;;10.20;99.90;;;;;;4906936;29;20080;-70
2022/11/18 18:16:47;;;;;;;10.27;4.80;;;10.10;99.90;;;;;;4903615;29;20029;-71
2022/11/18 18:19:15;;;;;;;7.25;3.78;;;10.00;99.90;;;;;;4908356;29;20029;-71
2022/11/18 18:21:41;;;;;;;8.48;4.20;;;10.00;99.90;;;;;;4908524;29;20036;-70
2022/11/18 18:24:07;;;;;;;9.13;4.30;;;9.90;99.90;;;;;;4905981;29;20037;-72
2022/11/18 18:26:33;;;;;;;;;;;10.00;99.90;;;;;;4905133;29;20374;-71
2022/11/18 18:28:59;;;;;;;7.40;4.30;;;10.00;99.90;;;;;;4903229;29;19955;-71
2022/11/18 18:31:25;;;;;;;10.98;6.53;;;10.10;99.90;;;;;;4902516;29;20028;-71